GTAJB EGPT-EGPF
Flight info
| Callsign | GTAJB |
|---|---|
| Flight time | 0h 22m |
| Altitude | 2500 |
| Route | GLENEAGLES VP466 |
| Aircraft | H145/L-SDFGRY/C |
Departure
| Time | 2026-04-22 16:03 |
|---|---|
| Airport | Perth/Scone Airport (EGPT) |
Arrival
| Time | 2026-04-22 16:26 |
|---|---|
| Airport | Glasgow Airport (EGPF) |
| Time | Latitude | Longitude | Altitude | Speed | Heading |
|---|---|---|---|---|---|
| 2026-04-22 15:57 | 56.28286 | -3.74764 | 527 ft | 0 kts | 263° |
| 2026-04-22 15:58 | 56.28286 | -3.74769 | 527 ft | 0 kts | 91° |
| 2026-04-22 16:00 | 56.28286 | -3.74770 | 527 ft | 0 kts | 91° |
| 2026-04-22 16:02 | 56.28286 | -3.74771 | 527 ft | 0 kts | 91° |
| 2026-04-22 16:03 | 56.28283 | -3.74787 | 549 ft | 5 kts | 101° |
| 2026-04-22 16:03 | 56.28224 | -3.74579 | 754 ft | 37 kts | 92° |
| 2026-04-22 16:03 | 56.28092 | -3.73950 | 1010 ft | 72 kts | 114° |
| 2026-04-22 16:04 | 56.27620 | -3.73651 | 1291 ft | 79 kts | 171° |
| 2026-04-22 16:04 | 56.27148 | -3.74204 | 1560 ft | 83 kts | 214° |
| 2026-04-22 16:04 | 56.26711 | -3.75062 | 1810 ft | 105 kts | 222° |
| 2026-04-22 16:04 | 56.26191 | -3.76198 | 2069 ft | 128 kts | 223° |
| 2026-04-22 16:05 | 56.25622 | -3.77443 | 2317 ft | 127 kts | 223° |
| 2026-04-22 16:05 | 56.25040 | -3.78677 | 2435 ft | 132 kts | 223° |
| 2026-04-22 16:05 | 56.24444 | -3.79904 | 2488 ft | 129 kts | 222° |
| 2026-04-22 16:05 | 56.23847 | -3.81120 | 2498 ft | 131 kts | 222° |
| 2026-04-22 16:06 | 56.23269 | -3.82299 | 2505 ft | 131 kts | 223° |
| 2026-04-22 16:06 | 56.22666 | -3.83552 | 2512 ft | 135 kts | 223° |
| 2026-04-22 16:06 | 56.22053 | -3.84819 | 2505 ft | 134 kts | 224° |
| 2026-04-22 16:06 | 56.21451 | -3.86057 | 2508 ft | 131 kts | 224° |
| 2026-04-22 16:07 | 56.20852 | -3.87296 | 2508 ft | 131 kts | 224° |
| 2026-04-22 16:07 | 56.20251 | -3.88552 | 2508 ft | 132 kts | 224° |
| 2026-04-22 16:07 | 56.19650 | -3.89794 | 2512 ft | 131 kts | 224° |
| 2026-04-22 16:07 | 56.19051 | -3.91033 | 2510 ft | 131 kts | 224° |
| 2026-04-22 16:08 | 56.18458 | -3.92265 | 2519 ft | 132 kts | 223° |
| 2026-04-22 16:08 | 56.17852 | -3.93520 | 2504 ft | 131 kts | 224° |
| 2026-04-22 16:08 | 56.17255 | -3.94751 | 2502 ft | 130 kts | 225° |
| 2026-04-22 16:08 | 56.16657 | -3.95998 | 2512 ft | 132 kts | 224° |
| 2026-04-22 16:09 | 56.16065 | -3.97222 | 2506 ft | 131 kts | 224° |
| 2026-04-22 16:09 | 56.15540 | -3.98308 | 2515 ft | 131 kts | 223° |
| 2026-04-22 16:09 | 56.14973 | -3.99478 | 2517 ft | 131 kts | 224° |
| 2026-04-22 16:09 | 56.14494 | -4.00819 | 2513 ft | 135 kts | 237° |
| 2026-04-22 16:10 | 56.14081 | -4.02318 | 2510 ft | 134 kts | 240° |
| 2026-04-22 16:10 | 56.13682 | -4.03824 | 2499 ft | 134 kts | 242° |
| 2026-04-22 16:10 | 56.13412 | -4.04845 | 2498 ft | 134 kts | 242° |
| 2026-04-22 16:10 | 56.12880 | -4.06857 | 2494 ft | 134 kts | 241° |
| 2026-04-22 16:11 | 56.12478 | -4.08361 | 2498 ft | 133 kts | 240° |
| 2026-04-22 16:11 | 56.12068 | -4.09859 | 2495 ft | 135 kts | 240° |
| 2026-04-22 16:11 | 56.11653 | -4.11393 | 2496 ft | 138 kts | 241° |
| 2026-04-22 16:11 | 56.11253 | -4.12877 | 2492 ft | 136 kts | 240° |
| 2026-04-22 16:12 | 56.10875 | -4.14264 | 2496 ft | 133 kts | 240° |
| 2026-04-22 16:12 | 56.10465 | -4.15763 | 2495 ft | 134 kts | 240° |
| 2026-04-22 16:12 | 56.10052 | -4.17275 | 2488 ft | 137 kts | 240° |
| 2026-04-22 16:12 | 56.09641 | -4.18787 | 2494 ft | 136 kts | 240° |
| 2026-04-22 16:13 | 56.09220 | -4.20321 | 2489 ft | 136 kts | 240° |
| 2026-04-22 16:13 | 56.08812 | -4.21823 | 2488 ft | 135 kts | 240° |
| 2026-04-22 16:13 | 56.08414 | -4.23292 | 2489 ft | 136 kts | 240° |
| 2026-04-22 16:13 | 56.07998 | -4.24796 | 2494 ft | 134 kts | 239° |
| 2026-04-22 16:14 | 56.07580 | -4.26304 | 2499 ft | 135 kts | 239° |
| 2026-04-22 16:14 | 56.07166 | -4.27793 | 2495 ft | 133 kts | 238° |
| 2026-04-22 16:14 | 56.06753 | -4.29269 | 2493 ft | 132 kts | 239° |
| 2026-04-22 16:14 | 56.06342 | -4.30765 | 2476 ft | 137 kts | 239° |
| 2026-04-22 16:15 | 56.05927 | -4.32301 | 2493 ft | 137 kts | 239° |
| 2026-04-22 16:15 | 56.05528 | -4.33751 | 2487 ft | 134 kts | 240° |
| 2026-04-22 16:15 | 56.05114 | -4.35261 | 2492 ft | 135 kts | 239° |
| 2026-04-22 16:15 | 56.04697 | -4.36772 | 2489 ft | 136 kts | 239° |
| 2026-04-22 16:16 | 56.04277 | -4.38299 | 2503 ft | 138 kts | 239° |
| 2026-04-22 16:16 | 56.03854 | -4.39836 | 2511 ft | 139 kts | 240° |
| 2026-04-22 16:16 | 56.03432 | -4.41362 | 2515 ft | 136 kts | 239° |
| 2026-04-22 16:16 | 56.03008 | -4.42880 | 2524 ft | 136 kts | 238° |
| 2026-04-22 16:17 | 56.02585 | -4.44389 | 2509 ft | 137 kts | 238° |
| 2026-04-22 16:17 | 56.02166 | -4.45914 | 2511 ft | 139 kts | 239° |
| 2026-04-22 16:17 | 56.01744 | -4.47458 | 2515 ft | 138 kts | 238° |
| 2026-04-22 16:17 | 56.01326 | -4.48991 | 2516 ft | 137 kts | 239° |
| 2026-04-22 16:18 | 56.00908 | -4.50515 | 2517 ft | 137 kts | 239° |
| 2026-04-22 16:18 | 56.00484 | -4.52058 | 2518 ft | 138 kts | 239° |
| 2026-04-22 16:18 | 56.00062 | -4.53590 | 2525 ft | 136 kts | 237° |
| 2026-04-22 16:18 | 55.99579 | -4.55018 | 2526 ft | 133 kts | 221° |
| 2026-04-22 16:19 | 55.98822 | -4.55821 | 2528 ft | 123 kts | 186° |
| 2026-04-22 16:19 | 55.98079 | -4.55836 | 2517 ft | 113 kts | 159° |
| 2026-04-22 16:19 | 55.97426 | -4.55214 | 2499 ft | 102 kts | 130° |
| 2026-04-22 16:19 | 55.96949 | -4.54272 | 2507 ft | 103 kts | 128° |
| 2026-04-22 16:20 | 55.96406 | -4.53412 | 2513 ft | 104 kts | 132° |
| 2026-04-22 16:20 | 55.95854 | -4.52582 | 2525 ft | 104 kts | 133° |
| 2026-04-22 16:20 | 55.95314 | -4.51744 | 2512 ft | 102 kts | 133° |
| 2026-04-22 16:20 | 55.94774 | -4.50915 | 2503 ft | 102 kts | 133° |
| 2026-04-22 16:21 | 55.94258 | -4.50094 | 2515 ft | 102 kts | 129° |
| 2026-04-22 16:21 | 55.93745 | -4.49243 | 2509 ft | 102 kts | 129° |
| 2026-04-22 16:21 | 55.93226 | -4.48384 | 2516 ft | 102 kts | 130° |
| 2026-04-22 16:21 | 55.92708 | -4.47519 | 2518 ft | 102 kts | 130° |
| 2026-04-22 16:22 | 55.91560 | -4.46011 | 2361 ft | 106 kts | 147° |
| 2026-04-22 16:22 | 55.90869 | -4.45534 | 2233 ft | 107 kts | 149° |
| 2026-04-22 16:22 | 55.90164 | -4.45105 | 2101 ft | 108 kts | 152° |
| 2026-04-22 16:23 | 55.88759 | -4.44550 | 1849 ft | 121 kts | 177° |
| 2026-04-22 16:23 | 55.87985 | -4.45242 | 1734 ft | 132 kts | 215° |
| 2026-04-22 16:23 | 55.87406 | -4.46542 | 1595 ft | 134 kts | 229° |
| 2026-04-22 16:24 | 55.86866 | -4.47821 | 1480 ft | 117 kts | 222° |
| 2026-04-22 16:24 | 55.85673 | -4.48118 | 1134 ft | 83 kts | 128° |
| 2026-04-22 16:24 | 55.85479 | -4.47260 | 980 ft | 73 kts | 83° |
| 2026-04-22 16:25 | 55.85536 | -4.46385 | 822 ft | 69 kts | 67° |
| 2026-04-22 16:25 | 55.86150 | -4.45121 | 510 ft | 69 kts | 48° |
| 2026-04-22 16:25 | 55.86539 | -4.44740 | 370 ft | 74 kts | 38° |
| 2026-04-22 16:26 | 55.86946 | -4.44209 | 244 ft | 71 kts | 50° |
| 2026-04-22 16:26 | 55.87163 | -4.43543 | 147 ft | 51 kts | 72° |
| 2026-04-22 16:26 | 55.87201 | -4.43106 | 81 ft | 21 kts | 83° |
| 2026-04-22 16:26 | 55.87200 | -4.42987 | 64 ft | 1 kts | 92° |
| 2026-04-22 16:27 | 55.87204 | -4.42974 | 42 ft | 1 kts | 92° |
| 2026-04-22 16:27 | 55.87203 | -4.42969 | 35 ft | 0 kts | 92° |
| 2026-04-22 16:27 | 55.87203 | -4.42968 | 28 ft | 0 kts | 96° |
| 2026-04-22 16:27 | 55.87204 | -4.42968 | 28 ft | 0 kts | 104° |
| 2026-04-22 16:28 | 55.87196 | -4.42920 | 53 ft | 9 kts | 97° |
| 2026-04-22 16:28 | 55.87211 | -4.42786 | 86 ft | 8 kts | 72° |
| 2026-04-22 16:29 | 55.87207 | -4.42757 | 54 ft | 4 kts | 93° |
| 2026-04-22 16:29 | 55.87136 | -4.42665 | 65 ft | 16 kts | 112° |
| 2026-04-22 16:29 | 55.87104 | -4.42586 | 56 ft | 4 kts | 68° |
| 2026-04-22 16:29 | 55.87106 | -4.42586 | 31 ft | 0 kts | 72° |
| 2026-04-22 16:30 | 55.87107 | -4.42587 | 28 ft | 0 kts | 73° |
| 2026-04-22 16:30 | 55.87109 | -4.42577 | 27 ft | 5 kts | 82° |
| 2026-04-22 16:30 | 55.87110 | -4.42570 | 27 ft | 0 kts | 85° |
| 2026-04-22 16:33 | 55.87110 | -4.42571 | 26 ft | 0 kts | 85° |
| 2026-04-22 16:35 | 55.87110 | -4.42572 | 26 ft | 0 kts | 85° |
| 2026-04-22 16:37 | 55.87110 | -4.42573 | 28 ft | 0 kts | 85° |
| 2026-04-22 16:40 | 55.87110 | -4.42574 | 28 ft | 0 kts | 85° |
| 2026-04-22 16:42 | 55.87110 | -4.42575 | 28 ft | 0 kts | 85° |
| 2026-04-22 16:45 | 55.87110 | -4.42576 | 28 ft | 0 kts | 85° |
| 2026-04-22 16:47 | 55.87110 | -4.42577 | 28 ft | 0 kts | 85° |
| 2026-04-22 16:50 | 55.87110 | -4.42578 | 28 ft | 0 kts | 85° |
| 2026-04-22 16:51 | 55.87109 | -4.42578 | 28 ft | 0 kts | 85° |
| 2026-04-22 16:52 | 55.87109 | -4.42579 | 28 ft | 0 kts | 85° |
| 2026-04-22 16:54 | 55.87109 | -4.42580 | 28 ft | 0 kts | 85° |
| 2026-04-22 16:57 | 55.87109 | -4.42581 | 28 ft | 0 kts | 85° |